createdAt,value
2023-03-15T00:01:32.260Z,99297.47
2023-03-15T00:04:35.047Z,99294.97
2023-03-15T00:07:37.552Z,99294.25
2023-03-15T00:10:45.192Z,99290.81
2023-03-15T00:13:47.840Z,99291.00
2023-03-15T00:16:50.795Z,99292.69
2023-03-15T00:19:53.317Z,99286.44
2023-03-15T00:22:56.204Z,99300.56
2023-03-15T00:25:58.795Z,99289.72
2023-03-15T00:29:01.866Z,99296.84
2023-03-15T00:32:04.834Z,99302.19
2023-03-15T00:35:08.022Z,99299.59
2023-03-15T00:38:13.706Z,99303.38
2023-03-15T00:41:21.028Z,99299.66
2023-03-15T00:44:24.606Z,99310.59
2023-03-15T00:47:27.596Z,99317.00
2023-03-15T00:50:30.464Z,99320.56
2023-03-15T00:53:34.334Z,99317.75
2023-03-15T00:56:37.476Z,99315.78
2023-03-15T00:59:40.385Z,99316.81
2023-03-15T01:02:43.302Z,99314.06
2023-03-15T01:05:46.335Z,99320.50
2023-03-15T01:08:49.037Z,99311.59
2023-03-15T01:11:52.120Z,99310.75
2023-03-15T01:14:55.055Z,99319.66
2023-03-15T01:17:58.528Z,99299.25
2023-03-15T01:21:01.483Z,99313.44
2023-03-15T01:24:04.461Z,99320.59
2023-03-15T01:27:06.978Z,99306.59
2023-03-15T01:30:10.432Z,99317.47
2023-03-15T01:33:15.308Z,99317.50
2023-03-15T01:36:18.559Z,99328.44
2023-03-15T01:39:21.489Z,99341.09
2023-03-15T01:42:24.588Z,99331.22
2023-03-15T01:45:58.127Z,99354.50
2023-03-15T01:49:13.520Z,99359.19
2023-03-15T01:52:21.383Z,99365.38
2023-03-15T01:55:24.704Z,99380.78
2023-03-15T01:58:29.260Z,99405.87
2023-03-15T02:01:34.411Z,99401.56
2023-03-15T02:04:46.476Z,99406.94
2023-03-15T02:07:50.594Z,99408.06
2023-03-15T02:10:58.753Z,99417.19
2023-03-15T02:14:03.097Z,99427.09
2023-03-15T02:17:06.079Z,99443.22
2023-03-15T02:20:46.334Z,99444.09
2023-03-15T02:23:59.514Z,99436.94
2023-03-15T02:27:02.233Z,99455.94
2023-03-15T02:30:06.597Z,99475.63
2023-03-15T02:33:30.959Z,99465.75
2023-03-15T02:36:35.136Z,99476.56
2023-03-15T02:39:37.853Z,99478.41
2023-03-15T02:42:42.614Z,99457.94
2023-03-15T02:45:46.326Z,99454.38
2023-03-15T02:48:49.812Z,99445.41
2023-03-15T02:51:52.471Z,99440.16
2023-03-15T02:54:55.599Z,99456.22
2023-03-15T02:57:59.510Z,99475.94
2023-03-15T03:01:03.169Z,99492.88
2023-03-15T03:04:06.033Z,99493.78
2023-03-15T03:07:09.182Z,99485.75
2023-03-15T03:10:15.950Z,99486.72
2023-03-15T03:13:19.862Z,99484.06
2023-03-15T03:16:23.270Z,99490.28
2023-03-15T03:19:27.617Z,99499.16
2023-03-15T03:22:31.289Z,99486.78
2023-03-15T03:25:34.142Z,99497.47
2023-03-15T03:28:36.814Z,99497.47
2023-03-15T03:31:42.266Z,99491.28
2023-03-15T03:34:48.642Z,99485.03
2023-03-15T03:37:54.094Z,99485.97
2023-03-15T03:40:58.608Z,99481.59
2023-03-15T03:44:03.901Z,99488.72
2023-03-15T03:47:07.174Z,99481.66
2023-03-15T03:50:11.305Z,99476.31
2023-03-15T03:53:14.689Z,99490.56
2023-03-15T03:56:17.612Z,99482.59
2023-03-15T03:59:20.307Z,99492.34
2023-03-15T04:02:24.522Z,99493.25
2023-03-15T04:05:30.615Z,99507.47
2023-03-15T04:08:33.341Z,99518.19
2023-03-15T04:11:36.510Z,99529.75
2023-03-15T04:14:40.138Z,99530.66
2023-03-15T04:17:43.438Z,99528.00
2023-03-15T04:20:49.442Z,99533.31
2023-03-15T04:23:53.967Z,99538.66
2023-03-15T04:26:57.997Z,99537.78
2023-03-15T04:30:05.486Z,99542.25
2023-03-15T04:33:10.925Z,99529.81
2023-03-15T04:36:18.618Z,99526.25
2023-03-15T04:39:21.726Z,99531.66
2023-03-15T04:42:26.201Z,99537.81
2023-03-15T04:45:31.777Z,99528.94
2023-03-15T04:48:35.606Z,99544.09
2023-03-15T04:51:39.780Z,99526.34
2023-03-15T04:54:43.136Z,99524.56
2023-03-15T04:57:45.945Z,99531.69
2023-03-15T05:00:49.876Z,99520.13
2023-03-15T05:03:54.488Z,99527.25
2023-03-15T05:06:57.751Z,99529.03
2023-03-15T05:10:00.573Z,99545.91
2023-03-15T05:13:04.626Z,99553.03
2023-03-15T05:16:08.284Z,99562.81
2023-03-15T05:19:11.503Z,99570.81
2023-03-15T05:22:14.504Z,99586.81
2023-03-15T05:25:17.462Z,99585.03
2023-03-15T05:28:24.984Z,99593.03
2023-03-15T05:31:28.424Z,99622.38
2023-03-15T05:34:32.470Z,99609.91
2023-03-15T05:37:35.985Z,99609.91
2023-03-15T05:40:44.690Z,99606.38
2023-03-15T05:43:48.112Z,99629.47
2023-03-15T05:46:50.983Z,99620.59
2023-03-15T05:49:54.264Z,99635.69
2023-03-15T05:52:57.784Z,99642.81
2023-03-15T05:56:01.303Z,99636.59
2023-03-15T05:59:05.149Z,99643.69
2023-03-15T06:02:09.150Z,99657.91
2023-03-15T06:05:12.605Z,99662.34
2023-03-15T06:08:18.116Z,99657.03
2023-03-15T06:11:21.892Z,99661.47
2023-03-15T06:14:27.336Z,99658.78
2023-03-15T06:17:31.427Z,99673.03
2023-03-15T06:20:38.019Z,99684.56
2023-03-15T06:23:45.316Z,99685.44
2023-03-15T06:26:47.959Z,99694.34
2023-03-15T06:29:52.180Z,99711.22
2023-03-15T06:32:56.020Z,99702.31
2023-03-15T06:35:58.980Z,99710.31
2023-03-15T06:39:04.545Z,99711.22
2023-03-15T06:42:08.470Z,99706.78
2023-03-15T06:45:13.319Z,99702.31
2023-03-15T06:48:16.408Z,99714.75
2023-03-15T06:51:19.491Z,99717.44
2023-03-15T06:54:23.454Z,99728.09
2023-03-15T06:57:26.047Z,99742.31
2023-03-15T07:00:29.721Z,99744.97
2023-03-15T07:03:32.370Z,99744.09
2023-03-15T07:06:35.935Z,99745.91
2023-03-15T07:09:38.926Z,99749.47
2023-03-15T07:12:41.949Z,99757.47
2023-03-15T07:15:44.779Z,99756.59
2023-03-15T07:18:47.863Z,99765.47
2023-03-15T07:21:50.514Z,99760.16
2023-03-15T07:24:53.540Z,99773.47
2023-03-15T07:27:56.035Z,99780.59
2023-03-15T07:31:01.866Z,99781.50
2023-03-15T07:34:04.530Z,99782.38
2023-03-15T07:37:07.752Z,99786.81
2023-03-15T07:40:11.207Z,99780.59
2023-03-15T07:43:14.621Z,99785.03
2023-03-15T07:46:17.464Z,99781.47
2023-03-15T07:49:20.461Z,99797.50
2023-03-15T07:52:23.783Z,99807.28
2023-03-15T07:55:26.800Z,99806.38
2023-03-15T07:58:29.503Z,99797.50
2023-03-15T08:01:32.379Z,99797.50
2023-03-15T08:04:36.950Z,99812.63
2023-03-15T08:07:39.779Z,99804.63
2023-03-15T08:10:44.324Z,99818.87
2023-03-15T08:13:46.902Z,99825.94
2023-03-15T08:16:50.607Z,99830.38
2023-03-15T08:19:53.206Z,99835.72
2023-03-15T08:22:56.118Z,99823.19
2023-03-15T08:25:59.168Z,99828.47
2023-03-15T08:29:02.021Z,99837.28
2023-03-15T08:32:04.909Z,99845.16
2023-03-15T08:35:08.518Z,99845.03
2023-03-15T08:38:11.179Z,99854.78
2023-03-15T08:41:14.136Z,99858.38
2023-03-15T08:44:17.241Z,99854.78
2023-03-15T08:47:20.100Z,99853.12
2023-03-15T08:50:24.003Z,99870.81
2023-03-15T08:53:26.929Z,99869.91
2023-03-15T08:56:30.307Z,99867.09
2023-03-15T08:59:33.229Z,99869.78
2023-03-15T09:02:36.804Z,99876.63
2023-03-15T09:05:40.418Z,99882.03
2023-03-15T09:08:43.034Z,99886.56
2023-03-15T09:11:45.989Z,99898.72
2023-03-15T09:14:48.503Z,99892.72
2023-03-15T09:17:54.119Z,99890.88
2023-03-15T09:20:57.819Z,99889.59
2023-03-15T09:24:00.862Z,99884.84
2023-03-15T09:27:03.680Z,99896.19
2023-03-15T09:30:08.071Z,99890.91
2023-03-15T09:33:14.816Z,99900.09
2023-03-15T09:36:17.709Z,99899.34
2023-03-15T09:39:21.837Z,99906.44
2023-03-15T09:42:55.971Z,99913.59
2023-03-15T09:46:16.755Z,99912.75
2023-03-15T09:49:30.166Z,99913.62
2023-03-15T09:52:45.349Z,99916.38
2023-03-15T09:55:49.234Z,99920.81
2023-03-15T09:58:55.955Z,99911.09
2023-03-15T10:02:23.923Z,99912.81
2023-03-15T10:05:35.491Z,99920.00
2023-03-15T10:08:38.105Z,99897.66
2023-03-15T10:12:03.509Z,99885.09
2023-03-15T10:15:24.724Z,99917.19
2023-03-15T10:18:55.941Z,99910.63
2023-03-15T10:22:22.369Z,99903.22
2023-03-15T10:25:30.837Z,99904.16
2023-03-15T10:28:37.068Z,99924.16
2023-03-15T10:31:44.779Z,99907.13
2023-03-15T10:34:53.052Z,99914.72
2023-03-15T10:37:55.858Z,99906.28
2023-03-15T10:41:00.839Z,99906.22
2023-03-15T10:44:06.522Z,99907.66
2023-03-15T10:47:23.209Z,99905.03
2023-03-15T10:50:32.990Z,99920.50
2023-03-15T10:53:35.724Z,99918.78
2023-03-15T10:56:44.255Z,99900.50
2023-03-15T10:59:59.729Z,99906.81
2023-03-15T11:03:25.835Z,99916.91
2023-03-15T11:06:29.021Z,99915.94
2023-03-15T11:09:41.037Z,99905.47
2023-03-15T11:12:43.606Z,99899.75
2023-03-15T11:16:07.560Z,99915.53
2023-03-15T11:19:16.632Z,99921.94
2023-03-15T11:22:19.800Z,99923.22
2023-03-15T11:25:25.175Z,99911.38
2023-03-15T11:28:31.043Z,99903.00
2023-03-15T11:31:34.132Z,99922.72
2023-03-15T11:34:46.258Z,99924.03
2023-03-15T11:38:06.199Z,99923.16
2023-03-15T11:41:25.810Z,99906.25
2023-03-15T11:44:45.893Z,99905.88
2023-03-15T11:47:53.411Z,99910.13
2023-03-15T11:50:57.836Z,99921.94
2023-03-15T11:54:05.790Z,99920.84
2023-03-15T11:57:40.495Z,99932.75
2023-03-15T12:00:47.212Z,99925.34
2023-03-15T12:03:50.802Z,99942.47
2023-03-15T12:06:57.465Z,99919.69
2023-03-15T12:10:03.238Z,99934.38
2023-03-15T12:13:17.991Z,99953.34
2023-03-15T12:16:22.490Z,99940.97
2023-03-15T12:19:26.970Z,99946.72
2023-03-15T12:22:33.517Z,99946.75
2023-03-15T12:25:49.017Z,99934.31
2023-03-15T12:29:08.220Z,99948.44
2023-03-15T12:32:17.681Z,99955.91
2023-03-15T12:35:22.067Z,99953.19
2023-03-15T12:38:24.673Z,99960.44
2023-03-15T12:41:48.968Z,99956.97
2023-03-15T12:44:51.581Z,99960.38
2023-03-15T12:47:54.383Z,99967.50
2023-03-15T12:51:03.867Z,99969.31
2023-03-15T12:54:09.897Z,99949.44
2023-03-15T12:57:14.802Z,99967.47
2023-03-15T13:00:20.737Z,99949.94
2023-03-15T13:03:26.274Z,99980.09
2023-03-15T13:06:45.223Z,99960.25
2023-03-15T13:10:07.195Z,99970.28
2023-03-15T13:13:28.136Z,99984.16
2023-03-15T13:16:38.298Z,99969.75
2023-03-15T13:19:46.741Z,99960.66
2023-03-15T13:23:15.844Z,99967.25
2023-03-15T13:26:40.177Z,99974.53
2023-03-15T13:29:42.764Z,99968.97
2023-03-15T13:32:45.610Z,99960.09
2023-03-15T13:36:05.909Z,99971.88
2023-03-15T13:39:14.995Z,99969.09
2023-03-15T13:42:19.730Z,99965.63
2023-03-15T13:45:23.313Z,99977.09
2023-03-15T13:48:34.649Z,99976.28
2023-03-15T13:51:38.981Z,99982.28
2023-03-15T13:54:42.056Z,99965.44
2023-03-15T13:57:45.291Z,99981.69
2023-03-15T14:00:49.964Z,99987.94
2023-03-15T14:04:03.591Z,100009.53
2023-03-15T14:07:14.999Z,100002.44
2023-03-15T14:10:33.023Z,100018.75
2023-03-15T14:13:59.906Z,100020.47
2023-03-15T14:17:08.815Z,99999.94
2023-03-15T14:20:17.067Z,100016.13
2023-03-15T14:23:24.887Z,100009.03
2023-03-15T14:26:29.565Z,100022.47
2023-03-15T14:29:34.824Z,100023.25
2023-03-15T14:32:38.845Z,100025.12
2023-03-15T14:35:44.286Z,100035.94
2023-03-15T14:38:52.781Z,100035.94
2023-03-15T14:41:57.092Z,100035.94
2023-03-15T14:45:00.351Z,100036.03
2023-03-15T14:48:27.372Z,100040.44
2023-03-15T14:51:31.729Z,100048.47
2023-03-15T14:54:34.814Z,100039.63
2023-03-15T14:57:37.459Z,100052.91
2023-03-15T15:00:58.100Z,100030.66
2023-03-15T15:04:02.179Z,100051.31
2023-03-15T15:07:05.242Z,100049.63
2023-03-15T15:10:08.194Z,100052.34
2023-03-15T15:13:28.464Z,100046.06
2023-03-15T15:16:31.083Z,100058.69
2023-03-15T15:19:34.109Z,100051.53
2023-03-15T15:22:36.732Z,100051.34
2023-03-15T15:25:39.826Z,100056.66
2023-03-15T15:28:42.777Z,100052.19
2023-03-15T15:31:46.271Z,100054.88
2023-03-15T15:34:49.065Z,100051.38
2023-03-15T15:37:52.076Z,100055.00
2023-03-15T15:40:54.815Z,100070.31
2023-03-15T15:43:59.181Z,100052.50
2023-03-15T15:47:01.783Z,100067.72
2023-03-15T15:50:05.646Z,100066.88
2023-03-15T15:53:16.816Z,100067.78
2023-03-15T15:56:19.713Z,100069.69
2023-03-15T15:59:25.547Z,100066.12
2023-03-15T16:02:28.671Z,100066.16
2023-03-15T16:05:33.014Z,100074.09
2023-03-15T16:08:38.274Z,100080.38
2023-03-15T16:11:42.772Z,100075.84
2023-03-15T16:14:46.955Z,100075.84
2023-03-15T16:17:49.948Z,100088.34
2023-03-15T16:20:55.246Z,100081.19
2023-03-15T16:24:20.063Z,100087.50
2023-03-15T16:27:24.317Z,100095.53
2023-03-15T16:30:31.689Z,100102.69
2023-03-15T16:33:35.324Z,100102.66
2023-03-15T16:36:49.006Z,100109.78
2023-03-15T16:39:55.765Z,100120.59
2023-03-15T16:42:59.832Z,100114.38
2023-03-15T16:46:02.643Z,100132.22
2023-03-15T16:49:08.724Z,100139.41
2023-03-15T16:52:14.011Z,100134.94
2023-03-15T16:55:20.283Z,100145.69
2023-03-15T16:58:23.039Z,100144.78
2023-03-15T17:01:26.518Z,100150.16
2023-03-15T17:04:29.774Z,100157.34
2023-03-15T17:07:35.726Z,100160.88
2023-03-15T17:10:42.430Z,100172.50
2023-03-15T17:13:45.561Z,100177.84
2023-03-15T17:16:48.440Z,100176.97
2023-03-15T17:19:52.818Z,100186.78
2023-03-15T17:22:58.060Z,100193.00
2023-03-15T17:26:01.136Z,100194.78
2023-03-15T17:29:04.363Z,100205.47
2023-03-15T17:32:11.505Z,100203.66
2023-03-15T17:35:16.164Z,100217.03
2023-03-15T17:38:21.900Z,100213.37
2023-03-15T17:41:28.382Z,100225.84
2023-03-15T17:44:31.510Z,100224.03
2023-03-15T17:47:34.443Z,100232.03
2023-03-15T17:50:38.229Z,100232.91
2023-03-15T17:53:41.150Z,100233.78
2023-03-15T17:56:44.527Z,100238.25
2023-03-15T17:59:47.691Z,100240.91
2023-03-15T18:02:55.578Z,100252.41
2023-03-15T18:06:01.502Z,100255.13
2023-03-15T18:09:05.751Z,100260.44
2023-03-15T18:12:14.313Z,100257.63
2023-03-15T18:15:22.601Z,100262.91
2023-03-15T18:18:25.946Z,100263.69
2023-03-15T18:21:28.755Z,100273.47
2023-03-15T18:24:34.406Z,100278.75
2023-03-15T18:27:37.357Z,100275.16
2023-03-15T18:30:40.877Z,100277.69
2023-03-15T18:33:43.913Z,100278.56
2023-03-15T18:36:47.297Z,100288.28
2023-03-15T18:39:50.890Z,100283.75
2023-03-15T18:42:55.124Z,100301.66
2023-03-15T18:45:57.728Z,100299.97
2023-03-15T18:49:01.098Z,100307.00
2023-03-15T18:52:05.053Z,100314.91
2023-03-15T18:55:09.985Z,100313.94
2023-03-15T18:58:13.220Z,100312.19
2023-03-15T19:01:17.341Z,100308.66
2023-03-15T19:04:20.339Z,100317.75
2023-03-15T19:07:23.389Z,100313.53
2023-03-15T19:10:27.552Z,100318.87
2023-03-15T19:13:31.038Z,100328.50
2023-03-15T19:16:33.732Z,100329.31
2023-03-15T19:19:42.285Z,100330.97
2023-03-15T19:22:45.868Z,100343.47
2023-03-15T19:25:50.536Z,100346.16
2023-03-15T19:28:54.246Z,100357.81
2023-03-15T19:31:57.477Z,100360.56
2023-03-15T19:35:00.971Z,100370.50
2023-03-15T19:38:04.326Z,100370.78
2023-03-15T19:41:09.749Z,100367.34
2023-03-15T19:44:14.629Z,100359.44
2023-03-15T19:47:17.592Z,100369.22
2023-03-15T19:50:20.946Z,100387.88
2023-03-15T19:53:24.158Z,100378.91
2023-03-15T19:56:27.652Z,100387.94
2023-03-15T19:59:30.770Z,100387.03
2023-03-15T20:02:33.888Z,100387.94
2023-03-15T20:05:38.515Z,100392.38
2023-03-15T20:08:42.368Z,100378.12
2023-03-15T20:11:45.621Z,100386.97
2023-03-15T20:14:48.807Z,100384.19
2023-03-15T20:17:52.735Z,100389.44
2023-03-15T20:20:55.709Z,100389.28
2023-03-15T20:23:59.232Z,100390.91
2023-03-15T20:27:02.195Z,100407.59
2023-03-15T20:30:07.755Z,100397.72
2023-03-15T20:33:10.653Z,100408.38
2023-03-15T20:36:14.326Z,100401.22
2023-03-15T20:39:18.502Z,100407.50
2023-03-15T20:42:23.316Z,100411.22
2023-03-15T20:45:26.022Z,100409.28
2023-03-15T20:48:30.660Z,100408.25
2023-03-15T20:51:33.537Z,100420.69
2023-03-15T20:54:36.972Z,100419.78
2023-03-15T20:57:42.694Z,100427.75
2023-03-15T21:00:46.013Z,100431.19
2023-03-15T21:03:48.991Z,100427.59
2023-03-15T21:06:52.296Z,100441.69
2023-03-15T21:09:55.240Z,100439.03
2023-03-15T21:12:58.424Z,100446.97
2023-03-15T21:16:04.169Z,100440.75
2023-03-15T21:19:07.314Z,100439.06
2023-03-15T21:22:10.691Z,100444.50
2023-03-15T21:25:13.785Z,100452.31
2023-03-15T21:28:16.423Z,100454.78
2023-03-15T21:31:19.681Z,100450.44
2023-03-15T21:34:22.404Z,100458.44
2023-03-15T21:37:25.380Z,100458.31
2023-03-15T21:40:28.053Z,100461.06
2023-03-15T21:43:32.255Z,100465.38
2023-03-15T21:46:35.072Z,100472.44
2023-03-15T21:49:39.289Z,100466.97
2023-03-15T21:52:42.111Z,100475.59
2023-03-15T21:55:46.346Z,100478.91
2023-03-15T21:58:49.511Z,100483.41
2023-03-15T22:01:53.764Z,100483.97
2023-03-15T22:04:56.623Z,100488.69
2023-03-15T22:07:59.216Z,100472.16
2023-03-15T22:11:02.351Z,100487.78
2023-03-15T22:14:04.914Z,100485.72
2023-03-15T22:17:07.868Z,100498.06
2023-03-15T22:20:17.119Z,100499.88
2023-03-15T22:23:20.403Z,100501.50
2023-03-15T22:26:23.161Z,100506.56
2023-03-15T22:29:26.030Z,100496.78
2023-03-15T22:32:28.616Z,100502.28
2023-03-15T22:35:31.533Z,100503.19
2023-03-15T22:38:37.997Z,100500.72
2023-03-15T22:41:40.993Z,100496.38
2023-03-15T22:44:45.812Z,100507.91
2023-03-15T22:47:50.520Z,100498.28
2023-03-15T22:51:14.548Z,100505.28
2023-03-15T22:54:17.912Z,100502.81
2023-03-15T22:57:20.592Z,100504.59
2023-03-15T23:00:23.915Z,100512.44
2023-03-15T23:03:27.349Z,100515.09
2023-03-15T23:06:30.121Z,100508.88
2023-03-15T23:09:32.823Z,100509.72
2023-03-15T23:12:36.784Z,100509.66
2023-03-15T23:15:39.709Z,100521.22
2023-03-15T23:18:43.228Z,100525.78
2023-03-15T23:21:46.419Z,100519.28
2023-03-15T23:24:49.243Z,100542.06
2023-03-15T23:27:51.861Z,100528.84
2023-03-15T23:30:54.777Z,100526.28
2023-03-15T23:33:57.329Z,100545.81
2023-03-15T23:37:00.124Z,100545.56
2023-03-15T23:40:16.802Z,100552.75
2023-03-15T23:43:19.715Z,100556.34
2023-03-15T23:46:23.638Z,100572.03
2023-03-15T23:49:26.770Z,100559.69
2023-03-15T23:52:29.405Z,100565.66
2023-03-15T23:55:33.501Z,100562.00
2023-03-15T23:58:36.133Z,100563.81
